ANA06 RJTT-RKSI
Flight info
| Callsign | ANA06 |
|---|---|
| Flight time | 1h 55m |
| Altitude | 40000 |
| Route | BEKLA Y18 PIGAP Y182 BIDIK Y16 SAPRA Y685 GUKDO GUKDO2H |
| Aircraft | A388/J-SADE2E3FGHIJ3J4J5M1RWXY/LB1D1 |
Departure
| Time | 2026-05-04 16:55 |
|---|---|
| Airport | Tokyo Haneda International Airport (RJTT) |
Arrival
| Time | 2026-05-04 18:51 |
|---|---|
| Airport | Incheon International Airport (RKSI) |
| Time | Latitude | Longitude | Altitude | Speed | Heading |
|---|---|---|---|---|---|
| 2026-05-04 16:34 | 35.55062 | 139.79048 | 29 ft | 0 kts | 237° |
| 2026-05-04 16:46 | 35.55095 | 139.79102 | 28 ft | 4 kts | 178° |
| 2026-05-04 16:46 | 35.55129 | 139.79085 | 28 ft | 4 kts | 150° |
| 2026-05-04 16:49 | 35.55108 | 139.79100 | 28 ft | 4 kts | 150° |
| 2026-05-04 16:50 | 35.55036 | 139.79167 | 29 ft | 7 kts | 106° |
| 2026-05-04 16:50 | 35.55071 | 139.79289 | 29 ft | 8 kts | 61° |
| 2026-05-04 16:51 | 35.55116 | 139.79419 | 28 ft | 6 kts | 111° |
| 2026-05-04 16:51 | 35.55085 | 139.79464 | 28 ft | 8 kts | 144° |
| 2026-05-04 16:51 | 35.54939 | 139.79569 | 28 ft | 17 kts | 150° |
| 2026-05-04 16:52 | 35.54673 | 139.79761 | 28 ft | 28 kts | 149° |
| 2026-05-04 16:52 | 35.54485 | 139.79893 | 28 ft | 34 kts | 150° |
| 2026-05-04 16:53 | 35.54034 | 139.80212 | 29 ft | 38 kts | 149° |
| 2026-05-04 16:53 | 35.53963 | 139.80446 | 29 ft | 10 kts | 44° |
| 2026-05-04 16:54 | 35.54013 | 139.80472 | 29 ft | 6 kts | 347° |
| 2026-05-04 16:55 | 35.55732 | 139.79243 | 237 ft | 153 kts | 329° |
| 2026-05-04 16:55 | 35.57649 | 139.78051 | 1251 ft | 150 kts | 0° |
| 2026-05-04 16:56 | 35.59452 | 139.79700 | 2552 ft | 191 kts | 32° |
| 2026-05-04 16:56 | 35.63141 | 139.83210 | 4085 ft | 259 kts | 28° |
| 2026-05-04 16:57 | 35.64730 | 139.84312 | 4809 ft | 266 kts | 18° |
| 2026-05-04 16:57 | 35.68396 | 139.85358 | 6452 ft | 277 kts | 4° |
| 2026-05-04 16:58 | 35.73467 | 139.83057 | 8891 ft | 273 kts | 317° |
| 2026-05-04 16:58 | 35.74916 | 139.81530 | 9720 ft | 273 kts | 304° |
| 2026-05-04 16:59 | 35.76095 | 139.77132 | 10776 ft | 289 kts | 273° |
| 2026-05-04 17:00 | 35.77958 | 139.66905 | 13671 ft | 308 kts | 281° |
| 2026-05-04 17:00 | 35.79850 | 139.59287 | 15788 ft | 314 kts | 281° |
| 2026-05-04 17:01 | 35.81141 | 139.54091 | 17092 ft | 320 kts | 280° |
| 2026-05-04 17:01 | 35.82410 | 139.48795 | 18373 ft | 322 kts | 277° |
| 2026-05-04 17:02 | 35.82917 | 139.43352 | 19545 ft | 319 kts | 266° |
| 2026-05-04 17:02 | 35.82979 | 139.37887 | 20658 ft | 323 kts | 266° |
| 2026-05-04 17:03 | 35.83025 | 139.35114 | 21207 ft | 324 kts | 266° |
| 2026-05-04 17:03 | 35.83070 | 139.32324 | 21722 ft | 327 kts | 266° |
| 2026-05-04 17:03 | 35.83157 | 139.26708 | 22848 ft | 330 kts | 266° |
| 2026-05-04 17:04 | 35.83238 | 139.21037 | 23983 ft | 330 kts | 266° |
| 2026-05-04 17:04 | 35.83234 | 139.15394 | 24900 ft | 330 kts | 262° |
| 2026-05-04 17:05 | 35.82946 | 139.09713 | 25819 ft | 335 kts | 261° |
| 2026-05-04 17:05 | 35.82667 | 139.03953 | 26830 ft | 341 kts | 261° |
| 2026-05-04 17:06 | 35.82383 | 138.98141 | 28102 ft | 341 kts | 260° |
| 2026-05-04 17:06 | 35.82238 | 138.95212 | 28647 ft | 344 kts | 259° |
| 2026-05-04 17:07 | 35.81944 | 138.89343 | 29742 ft | 348 kts | 259° |
| 2026-05-04 17:07 | 35.81845 | 138.87381 | 30107 ft | 350 kts | 259° |
| 2026-05-04 17:07 | 35.81642 | 138.83353 | 30772 ft | 353 kts | 259° |
| 2026-05-04 17:07 | 35.81488 | 138.80324 | 31220 ft | 355 kts | 259° |
| 2026-05-04 17:08 | 35.81334 | 138.77290 | 31612 ft | 359 kts | 259° |
| 2026-05-04 17:08 | 35.81019 | 138.71089 | 32568 ft | 363 kts | 259° |
| 2026-05-04 17:08 | 35.80861 | 138.67994 | 33186 ft | 363 kts | 258° |
| 2026-05-04 17:09 | 35.80696 | 138.64865 | 33575 ft | 368 kts | 258° |
| 2026-05-04 17:09 | 35.80529 | 138.61743 | 33975 ft | 371 kts | 258° |
| 2026-05-04 17:09 | 35.80360 | 138.58557 | 34329 ft | 375 kts | 258° |
| 2026-05-04 17:10 | 35.80021 | 138.52116 | 35238 ft | 377 kts | 259° |
| 2026-05-04 17:10 | 35.79507 | 138.42449 | 36781 ft | 377 kts | 260° |
| 2026-05-04 17:11 | 35.79335 | 138.39234 | 37260 ft | 377 kts | 261° |
| 2026-05-04 17:11 | 35.79295 | 138.36025 | 37720 ft | 380 kts | 265° |
| 2026-05-04 17:11 | 35.79856 | 138.29513 | 38711 ft | 386 kts | 272° |
| 2026-05-04 17:12 | 35.80454 | 138.26275 | 39127 ft | 390 kts | 276° |
| 2026-05-04 17:12 | 35.82151 | 138.19856 | 39680 ft | 397 kts | 279° |
| 2026-05-04 17:13 | 35.84800 | 138.10104 | 40048 ft | 400 kts | 279° |
| 2026-05-04 17:14 | 35.88311 | 137.97133 | 40061 ft | 402 kts | 279° |
| 2026-05-04 17:15 | 35.90953 | 137.87338 | 40068 ft | 397 kts | 279° |
| 2026-05-04 17:16 | 35.94388 | 137.74535 | 40025 ft | 396 kts | 279° |
| 2026-05-04 17:17 | 35.97865 | 137.61467 | 40087 ft | 406 kts | 279° |
| 2026-05-04 17:18 | 36.00715 | 137.48361 | 40116 ft | 385 kts | 272° |
| 2026-05-04 17:19 | 36.01256 | 137.35007 | 40106 ft | 390 kts | 265° |
| 2026-05-04 17:20 | 36.01262 | 137.21617 | 40112 ft | 391 kts | 265° |
| 2026-05-04 17:20 | 36.01240 | 137.11589 | 40102 ft | 388 kts | 265° |
| 2026-05-04 17:21 | 36.01199 | 136.99396 | 40080 ft | 389 kts | 265° |
| 2026-05-04 17:22 | 36.01168 | 136.91652 | 40081 ft | 388 kts | 265° |
| 2026-05-04 17:23 | 36.01115 | 136.80560 | 40069 ft | 386 kts | 265° |
| 2026-05-04 17:24 | 36.01044 | 136.68477 | 40109 ft | 392 kts | 265° |
| 2026-05-04 17:25 | 36.00950 | 136.54986 | 40118 ft | 396 kts | 265° |
| 2026-05-04 17:26 | 36.00843 | 136.41416 | 40121 ft | 395 kts | 265° |
| 2026-05-04 17:27 | 36.00686 | 136.24544 | 40104 ft | 393 kts | 265° |
| 2026-05-04 17:28 | 36.00544 | 136.11064 | 40092 ft | 392 kts | 265° |
| 2026-05-04 17:29 | 36.00302 | 135.90894 | 40101 ft | 393 kts | 265° |
| 2026-05-04 17:31 | 36.00073 | 135.73995 | 40110 ft | 396 kts | 265° |
| 2026-05-04 17:32 | 35.99820 | 135.56968 | 40125 ft | 397 kts | 265° |
| 2026-05-04 17:33 | 35.99618 | 135.44467 | 40130 ft | 398 kts | 265° |
| 2026-05-04 17:34 | 35.99383 | 135.30815 | 40128 ft | 398 kts | 265° |
| 2026-05-04 17:35 | 35.99068 | 135.13808 | 40126 ft | 397 kts | 265° |
| 2026-05-04 17:36 | 35.98936 | 135.06995 | 40124 ft | 397 kts | 265° |
| 2026-05-04 17:36 | 35.98799 | 135.00181 | 40123 ft | 396 kts | 265° |
| 2026-05-04 17:37 | 35.98659 | 134.93418 | 40126 ft | 397 kts | 265° |
| 2026-05-04 17:37 | 35.98515 | 134.86600 | 40127 ft | 397 kts | 265° |
| 2026-05-04 17:38 | 35.98367 | 134.79778 | 40122 ft | 398 kts | 265° |
| 2026-05-04 17:38 | 35.98215 | 134.72951 | 40128 ft | 398 kts | 265° |
| 2026-05-04 17:39 | 35.97978 | 134.62760 | 40135 ft | 398 kts | 265° |
| 2026-05-04 17:39 | 35.97815 | 134.55923 | 40146 ft | 398 kts | 265° |
| 2026-05-04 17:40 | 35.97648 | 134.49086 | 40134 ft | 399 kts | 265° |
| 2026-05-04 17:40 | 35.97478 | 134.42256 | 40134 ft | 399 kts | 265° |
| 2026-05-04 17:41 | 35.97304 | 134.35461 | 40136 ft | 398 kts | 265° |
| 2026-05-04 17:41 | 35.97126 | 134.28626 | 40125 ft | 398 kts | 265° |
| 2026-05-04 17:42 | 35.96944 | 134.21791 | 40140 ft | 398 kts | 265° |
| 2026-05-04 17:42 | 35.96759 | 134.15004 | 40155 ft | 398 kts | 265° |
| 2026-05-04 17:43 | 35.96568 | 134.08162 | 40122 ft | 399 kts | 265° |
| 2026-05-04 17:43 | 35.96374 | 134.01313 | 40124 ft | 400 kts | 265° |
| 2026-05-04 17:44 | 35.96176 | 133.94452 | 40126 ft | 400 kts | 265° |
| 2026-05-04 17:44 | 35.95969 | 133.87586 | 40128 ft | 400 kts | 265° |
| 2026-05-04 17:45 | 35.95761 | 133.80760 | 40128 ft | 401 kts | 265° |
| 2026-05-04 17:45 | 35.95551 | 133.73886 | 40142 ft | 401 kts | 265° |
| 2026-05-04 17:46 | 35.95337 | 133.67010 | 40125 ft | 402 kts | 265° |
| 2026-05-04 17:46 | 35.95117 | 133.60115 | 40128 ft | 402 kts | 265° |
| 2026-05-04 17:47 | 35.94894 | 133.53265 | 40128 ft | 402 kts | 265° |
| 2026-05-04 17:47 | 35.94666 | 133.46369 | 40132 ft | 402 kts | 265° |
| 2026-05-04 17:48 | 35.94433 | 133.39476 | 40118 ft | 403 kts | 265° |
| 2026-05-04 17:48 | 35.94197 | 133.32559 | 40122 ft | 403 kts | 265° |
| 2026-05-04 17:49 | 35.93957 | 133.25686 | 40126 ft | 404 kts | 265° |
| 2026-05-04 17:49 | 35.93711 | 133.18755 | 40121 ft | 405 kts | 265° |
| 2026-05-04 17:50 | 35.93462 | 133.11810 | 40121 ft | 404 kts | 265° |
| 2026-05-04 17:50 | 35.93209 | 133.04893 | 40131 ft | 405 kts | 265° |
| 2026-05-04 17:51 | 35.92952 | 132.97987 | 40125 ft | 406 kts | 265° |
| 2026-05-04 17:51 | 35.92690 | 132.91030 | 40128 ft | 406 kts | 265° |
| 2026-05-04 17:52 | 35.92423 | 132.84071 | 40127 ft | 406 kts | 265° |
| 2026-05-04 17:52 | 35.92153 | 132.77102 | 40126 ft | 407 kts | 265° |
| 2026-05-04 17:53 | 35.91879 | 132.70144 | 40128 ft | 405 kts | 264° |
| 2026-05-04 17:53 | 35.91603 | 132.63257 | 40124 ft | 405 kts | 264° |
| 2026-05-04 17:54 | 35.91320 | 132.56320 | 40118 ft | 405 kts | 265° |
| 2026-05-04 17:54 | 35.91034 | 132.49377 | 40119 ft | 405 kts | 265° |
| 2026-05-04 17:55 | 35.90744 | 132.42423 | 40115 ft | 406 kts | 265° |
| 2026-05-04 17:55 | 35.90451 | 132.35513 | 40102 ft | 406 kts | 264° |
| 2026-05-04 17:56 | 35.90153 | 132.28554 | 40120 ft | 407 kts | 264° |
| 2026-05-04 17:56 | 35.89850 | 132.21592 | 40123 ft | 407 kts | 264° |
| 2026-05-04 17:57 | 35.89542 | 132.14623 | 40113 ft | 408 kts | 265° |
| 2026-05-04 17:57 | 35.89232 | 132.07667 | 40119 ft | 409 kts | 264° |
| 2026-05-04 17:58 | 35.88914 | 132.00648 | 40120 ft | 410 kts | 264° |
| 2026-05-04 17:58 | 35.88593 | 131.93634 | 40119 ft | 410 kts | 264° |
| 2026-05-04 17:59 | 35.88267 | 131.86618 | 40122 ft | 410 kts | 264° |
| 2026-05-04 18:00 | 35.87773 | 131.76134 | 40124 ft | 411 kts | 264° |
| 2026-05-04 18:00 | 35.87436 | 131.69104 | 40111 ft | 412 kts | 264° |
| 2026-05-04 18:01 | 35.87095 | 131.62074 | 40115 ft | 412 kts | 264° |
| 2026-05-04 18:01 | 35.86749 | 131.54999 | 40150 ft | 412 kts | 264° |
| 2026-05-04 18:02 | 35.86223 | 131.44452 | 40116 ft | 413 kts | 264° |
| 2026-05-04 18:02 | 35.85866 | 131.37381 | 40115 ft | 413 kts | 264° |
| 2026-05-04 18:03 | 35.85505 | 131.30317 | 40107 ft | 414 kts | 264° |
| 2026-05-04 18:03 | 35.85141 | 131.23283 | 40108 ft | 414 kts | 264° |
| 2026-05-04 18:04 | 35.84771 | 131.16193 | 40114 ft | 414 kts | 264° |
| 2026-05-04 18:05 | 35.84207 | 131.05566 | 40109 ft | 415 kts | 264° |
| 2026-05-04 18:05 | 35.83825 | 130.98465 | 40114 ft | 415 kts | 264° |
| 2026-05-04 18:06 | 35.83248 | 130.87882 | 40104 ft | 416 kts | 264° |
| 2026-05-04 18:06 | 35.82855 | 130.80756 | 40106 ft | 416 kts | 264° |
| 2026-05-04 18:07 | 35.82596 | 130.73627 | 40116 ft | 417 kts | 269° |
| 2026-05-04 18:07 | 35.83126 | 130.66490 | 40118 ft | 420 kts | 275° |
| 2026-05-04 18:08 | 35.84041 | 130.59444 | 40112 ft | 420 kts | 275° |
| 2026-05-04 18:08 | 35.84941 | 130.52324 | 40111 ft | 420 kts | 275° |
| 2026-05-04 18:09 | 35.86730 | 130.38087 | 40106 ft | 421 kts | 275° |
| 2026-05-04 18:10 | 35.87619 | 130.30974 | 40106 ft | 421 kts | 275° |
| 2026-05-04 18:10 | 35.88507 | 130.23828 | 40114 ft | 422 kts | 275° |
| 2026-05-04 18:11 | 35.89390 | 130.16689 | 40108 ft | 423 kts | 275° |
| 2026-05-04 18:11 | 35.90273 | 130.09515 | 40108 ft | 422 kts | 275° |
| 2026-05-04 18:12 | 35.91143 | 130.02406 | 40119 ft | 422 kts | 275° |
| 2026-05-04 18:12 | 35.92016 | 129.95233 | 40105 ft | 423 kts | 275° |
| 2026-05-04 18:13 | 35.92888 | 129.88040 | 40110 ft | 423 kts | 275° |
| 2026-05-04 18:14 | 35.94188 | 129.77252 | 40104 ft | 424 kts | 275° |
| 2026-05-04 18:14 | 35.95048 | 129.70059 | 40111 ft | 424 kts | 275° |
| 2026-05-04 18:15 | 35.96773 | 129.55709 | 40112 ft | 425 kts | 277° |
| 2026-05-04 18:16 | 35.98383 | 129.48650 | 40112 ft | 431 kts | 287° |
| 2026-05-04 18:16 | 36.01020 | 129.41962 | 40113 ft | 438 kts | 295° |
| 2026-05-04 18:17 | 36.06269 | 129.32698 | 40109 ft | 441 kts | 299° |
| 2026-05-04 18:18 | 36.11606 | 129.23420 | 40114 ft | 441 kts | 299° |
| 2026-05-04 18:18 | 36.15165 | 129.17226 | 40113 ft | 442 kts | 299° |
| 2026-05-04 18:19 | 36.20486 | 129.07952 | 40120 ft | 442 kts | 299° |
| 2026-05-04 18:19 | 36.24015 | 129.01786 | 40121 ft | 442 kts | 299° |
| 2026-05-04 18:20 | 36.27573 | 128.95557 | 40125 ft | 442 kts | 299° |
| 2026-05-04 18:20 | 36.31065 | 128.89441 | 39915 ft | 432 kts | 299° |
| 2026-05-04 18:21 | 36.32788 | 128.86420 | 39375 ft | 432 kts | 299° |
| 2026-05-04 18:21 | 36.34507 | 128.83394 | 38747 ft | 433 kts | 299° |
| 2026-05-04 18:21 | 36.36237 | 128.80344 | 37978 ft | 433 kts | 300° |
| 2026-05-04 18:21 | 36.37971 | 128.77286 | 37195 ft | 434 kts | 300° |
| 2026-05-04 18:22 | 36.39706 | 128.74227 | 36395 ft | 435 kts | 300° |
| 2026-05-04 18:22 | 36.41455 | 128.71141 | 35582 ft | 437 kts | 301° |
| 2026-05-04 18:22 | 36.43205 | 128.68050 | 34766 ft | 439 kts | 301° |
| 2026-05-04 18:22 | 36.44959 | 128.64950 | 33967 ft | 440 kts | 301° |
| 2026-05-04 18:23 | 36.46712 | 128.61852 | 33246 ft | 436 kts | 301° |
| 2026-05-04 18:23 | 36.48429 | 128.58817 | 32598 ft | 433 kts | 302° |
| 2026-05-04 18:23 | 36.50152 | 128.55767 | 31941 ft | 429 kts | 302° |
| 2026-05-04 18:23 | 36.51859 | 128.52741 | 31302 ft | 426 kts | 302° |
| 2026-05-04 18:24 | 36.53548 | 128.49742 | 30695 ft | 423 kts | 302° |
| 2026-05-04 18:24 | 36.55233 | 128.46745 | 29984 ft | 421 kts | 303° |
| 2026-05-04 18:24 | 36.56897 | 128.43788 | 29272 ft | 418 kts | 303° |
| 2026-05-04 18:24 | 36.58557 | 128.40834 | 28567 ft | 415 kts | 303° |
| 2026-05-04 18:25 | 36.60211 | 128.37890 | 27863 ft | 413 kts | 303° |
| 2026-05-04 18:25 | 36.61826 | 128.35011 | 27192 ft | 411 kts | 303° |
| 2026-05-04 18:25 | 36.63461 | 128.32093 | 26504 ft | 409 kts | 303° |
| 2026-05-04 18:25 | 36.65091 | 128.29212 | 25849 ft | 407 kts | 304° |
| 2026-05-04 18:26 | 36.66717 | 128.26367 | 25207 ft | 405 kts | 304° |
| 2026-05-04 18:26 | 36.68344 | 128.23523 | 24569 ft | 403 kts | 304° |
| 2026-05-04 18:26 | 36.69969 | 128.20675 | 23945 ft | 402 kts | 304° |
| 2026-05-04 18:26 | 36.71585 | 128.17839 | 23261 ft | 400 kts | 304° |
| 2026-05-04 18:27 | 36.73184 | 128.15027 | 22667 ft | 395 kts | 304° |
| 2026-05-04 18:27 | 36.74742 | 128.12283 | 22054 ft | 392 kts | 304° |
| 2026-05-04 18:27 | 36.76305 | 128.09529 | 21470 ft | 388 kts | 304° |
| 2026-05-04 18:27 | 36.77860 | 128.06787 | 20942 ft | 383 kts | 304° |
| 2026-05-04 18:28 | 36.79391 | 128.04083 | 20307 ft | 381 kts | 304° |
| 2026-05-04 18:28 | 36.80914 | 128.01392 | 19754 ft | 377 kts | 305° |
| 2026-05-04 18:28 | 36.82414 | 127.98740 | 19207 ft | 374 kts | 305° |
| 2026-05-04 18:28 | 36.83909 | 127.96094 | 18657 ft | 371 kts | 305° |
| 2026-05-04 18:29 | 36.85325 | 127.93587 | 18038 ft | 370 kts | 305° |
| 2026-05-04 18:29 | 36.86769 | 127.91031 | 17450 ft | 367 kts | 305° |
| 2026-05-04 18:29 | 36.88262 | 127.88384 | 16835 ft | 363 kts | 305° |
| 2026-05-04 18:29 | 36.89686 | 127.85859 | 16199 ft | 362 kts | 304° |
| 2026-05-04 18:30 | 36.92592 | 127.80699 | 14735 ft | 364 kts | 304° |
| 2026-05-04 18:30 | 36.94054 | 127.78098 | 14021 ft | 364 kts | 304° |
| 2026-05-04 18:30 | 36.95505 | 127.75515 | 13249 ft | 364 kts | 304° |
| 2026-05-04 18:31 | 36.96955 | 127.72932 | 12483 ft | 363 kts | 304° |
| 2026-05-04 18:31 | 36.98404 | 127.70347 | 11719 ft | 361 kts | 304° |
| 2026-05-04 18:31 | 36.99845 | 127.67777 | 10979 ft | 359 kts | 304° |
| 2026-05-04 18:31 | 37.01179 | 127.65162 | 10273 ft | 356 kts | 297° |
| 2026-05-04 18:32 | 37.02148 | 127.62376 | 9524 ft | 352 kts | 288° |
| 2026-05-04 18:32 | 37.02758 | 127.59443 | 8761 ft | 349 kts | 281° |
| 2026-05-04 18:32 | 37.03234 | 127.56473 | 8001 ft | 345 kts | 281° |
| 2026-05-04 18:32 | 37.03726 | 127.53546 | 7262 ft | 342 kts | 282° |
| 2026-05-04 18:33 | 37.04219 | 127.50646 | 6527 ft | 339 kts | 282° |
| 2026-05-04 18:33 | 37.04707 | 127.47774 | 5765 ft | 335 kts | 282° |
| 2026-05-04 18:33 | 37.05181 | 127.44980 | 5485 ft | 319 kts | 282° |
| 2026-05-04 18:33 | 37.05626 | 127.42341 | 5321 ft | 301 kts | 282° |
| 2026-05-04 18:34 | 37.06039 | 127.39879 | 5176 ft | 285 kts | 282° |
| 2026-05-04 18:34 | 37.06436 | 127.37509 | 5051 ft | 271 kts | 282° |
| 2026-05-04 18:34 | 37.06813 | 127.35254 | 4914 ft | 259 kts | 282° |
| 2026-05-04 18:34 | 37.07181 | 127.33058 | 4552 ft | 257 kts | 282° |
| 2026-05-04 18:35 | 37.07545 | 127.30872 | 4201 ft | 255 kts | 282° |
| 2026-05-04 18:35 | 37.07906 | 127.28710 | 3846 ft | 253 kts | 282° |
| 2026-05-04 18:35 | 37.08265 | 127.26556 | 3473 ft | 252 kts | 282° |
| 2026-05-04 18:35 | 37.08621 | 127.24417 | 3119 ft | 250 kts | 282° |
| 2026-05-04 18:36 | 37.08976 | 127.22295 | 2767 ft | 249 kts | 281° |
| 2026-05-04 18:36 | 37.09324 | 127.20198 | 2601 ft | 249 kts | 281° |
| 2026-05-04 18:36 | 37.09674 | 127.18087 | 2588 ft | 247 kts | 281° |
| 2026-05-04 18:36 | 37.10024 | 127.15972 | 2589 ft | 249 kts | 281° |
| 2026-05-04 18:37 | 37.10374 | 127.13852 | 2598 ft | 248 kts | 281° |
| 2026-05-04 18:37 | 37.10719 | 127.11741 | 2589 ft | 248 kts | 280° |
| 2026-05-04 18:37 | 37.11026 | 127.09609 | 2590 ft | 249 kts | 279° |
| 2026-05-04 18:37 | 37.11312 | 127.07475 | 2589 ft | 248 kts | 279° |
| 2026-05-04 18:38 | 37.11598 | 127.05334 | 2596 ft | 249 kts | 279° |
| 2026-05-04 18:38 | 37.11884 | 127.03225 | 2591 ft | 248 kts | 279° |
| 2026-05-04 18:38 | 37.12176 | 127.01096 | 2590 ft | 248 kts | 279° |
| 2026-05-04 18:38 | 37.12439 | 126.99190 | 2590 ft | 248 kts | 279° |
| 2026-05-04 18:39 | 37.12734 | 126.97058 | 2589 ft | 249 kts | 279° |
| 2026-05-04 18:39 | 37.13028 | 126.94926 | 2589 ft | 249 kts | 279° |
| 2026-05-04 18:39 | 37.13322 | 126.92791 | 2591 ft | 248 kts | 279° |
| 2026-05-04 18:39 | 37.13616 | 126.90657 | 2598 ft | 249 kts | 279° |
| 2026-05-04 18:40 | 37.13909 | 126.88525 | 2590 ft | 248 kts | 279° |
| 2026-05-04 18:40 | 37.14201 | 126.86396 | 2587 ft | 248 kts | 279° |
| 2026-05-04 18:40 | 37.14491 | 126.84279 | 2592 ft | 250 kts | 279° |
| 2026-05-04 18:40 | 37.14782 | 126.82158 | 2567 ft | 241 kts | 279° |
| 2026-05-04 18:41 | 37.15057 | 126.80152 | 2584 ft | 225 kts | 279° |
| 2026-05-04 18:41 | 37.15312 | 126.78293 | 2570 ft | 208 kts | 279° |
| 2026-05-04 18:41 | 37.15547 | 126.76573 | 2574 ft | 192 kts | 279° |
| 2026-05-04 18:41 | 37.15760 | 126.75013 | 2562 ft | 174 kts | 279° |
| 2026-05-04 18:42 | 37.15965 | 126.73522 | 2577 ft | 173 kts | 280° |
| 2026-05-04 18:42 | 37.16504 | 126.72181 | 2590 ft | 178 kts | 315° |
| 2026-05-04 18:42 | 37.17537 | 126.71298 | 2570 ft | 179 kts | 324° |
| 2026-05-04 18:42 | 37.18533 | 126.70467 | 2562 ft | 168 kts | 323° |
| 2026-05-04 18:43 | 37.19471 | 126.69650 | 2580 ft | 166 kts | 322° |
| 2026-05-04 18:43 | 37.20419 | 126.68809 | 2587 ft | 165 kts | 321° |
| 2026-05-04 18:43 | 37.21367 | 126.67970 | 2607 ft | 173 kts | 321° |
| 2026-05-04 18:43 | 37.22397 | 126.67049 | 2585 ft | 188 kts | 321° |
| 2026-05-04 18:44 | 37.23478 | 126.66089 | 2585 ft | 192 kts | 321° |
| 2026-05-04 18:44 | 37.24205 | 126.65449 | 2583 ft | 193 kts | 322° |
| 2026-05-04 18:44 | 37.25677 | 126.64154 | 2588 ft | 193 kts | 322° |
| 2026-05-04 18:44 | 37.26772 | 126.63190 | 2584 ft | 192 kts | 322° |
| 2026-05-04 18:45 | 37.27802 | 126.62287 | 2594 ft | 166 kts | 321° |
| 2026-05-04 18:45 | 37.28686 | 126.61523 | 2596 ft | 148 kts | 321° |
| 2026-05-04 18:45 | 37.29499 | 126.60812 | 2585 ft | 141 kts | 320° |
| 2026-05-04 18:45 | 37.30295 | 126.60102 | 2594 ft | 140 kts | 320° |
| 2026-05-04 18:46 | 37.31089 | 126.59399 | 2589 ft | 140 kts | 320° |
| 2026-05-04 18:46 | 37.31882 | 126.58694 | 2591 ft | 139 kts | 320° |
| 2026-05-04 18:46 | 37.32674 | 126.57991 | 2588 ft | 140 kts | 320° |
| 2026-05-04 18:46 | 37.33470 | 126.57285 | 2591 ft | 140 kts | 320° |
| 2026-05-04 18:47 | 37.34264 | 126.56579 | 2596 ft | 140 kts | 320° |
| 2026-05-04 18:47 | 37.35057 | 126.55876 | 2580 ft | 140 kts | 320° |
| 2026-05-04 18:47 | 37.35855 | 126.55165 | 2418 ft | 140 kts | 320° |
| 2026-05-04 18:47 | 37.36619 | 126.54487 | 2245 ft | 140 kts | 320° |
| 2026-05-04 18:48 | 37.37406 | 126.53786 | 2050 ft | 139 kts | 320° |
| 2026-05-04 18:48 | 37.38196 | 126.53085 | 1866 ft | 138 kts | 320° |
| 2026-05-04 18:48 | 37.38981 | 126.52387 | 1677 ft | 138 kts | 320° |
| 2026-05-04 18:48 | 37.39768 | 126.51688 | 1484 ft | 138 kts | 320° |
| 2026-05-04 18:49 | 37.40555 | 126.50987 | 1303 ft | 139 kts | 320° |
| 2026-05-04 18:49 | 37.41343 | 126.50287 | 1108 ft | 138 kts | 321° |
| 2026-05-04 18:49 | 37.42115 | 126.49598 | 923 ft | 138 kts | 321° |
| 2026-05-04 18:49 | 37.42904 | 126.48900 | 730 ft | 140 kts | 322° |
| 2026-05-04 18:50 | 37.43696 | 126.48193 | 533 ft | 139 kts | 323° |
| 2026-05-04 18:50 | 37.44487 | 126.47490 | 359 ft | 140 kts | 324° |
| 2026-05-04 18:50 | 37.45274 | 126.46786 | 161 ft | 139 kts | 324° |
| 2026-05-04 18:50 | 37.46056 | 126.46090 | 30 ft | 130 kts | 324° |
| 2026-05-04 18:51 | 37.46633 | 126.45569 | 28 ft | 68 kts | 325° |
| 2026-05-04 18:51 | 37.46818 | 126.45410 | 29 ft | 0 kts | 326° |
| 2026-05-04 18:51 | 37.46852 | 126.45380 | 29 ft | 11 kts | 326° |
| 2026-05-04 18:51 | 37.46929 | 126.45315 | 29 ft | 16 kts | 326° |
| 2026-05-04 18:52 | 37.47031 | 126.45227 | 30 ft | 21 kts | 326° |
| 2026-05-04 18:52 | 37.47213 | 126.45070 | 30 ft | 40 kts | 325° |
| 2026-05-04 18:52 | 37.47412 | 126.44851 | 28 ft | 36 kts | 303° |
| 2026-05-04 18:52 | 37.47472 | 126.44704 | 29 ft | 0 kts | 293° |
| 2026-05-04 18:58 | 37.47482 | 126.44673 | 29 ft | 8 kts | 293° |
| 2026-05-04 18:58 | 37.47486 | 126.44621 | 29 ft | 5 kts | 221° |
| 2026-05-04 18:58 | 37.47453 | 126.44611 | 29 ft | 6 kts | 167° |
| 2026-05-04 18:59 | 37.47403 | 126.44628 | 29 ft | 5 kts | 202° |
| 2026-05-04 18:59 | 37.47361 | 126.44577 | 28 ft | 11 kts | 232° |
| 2026-05-04 18:59 | 37.47304 | 126.44484 | 28 ft | 16 kts | 232° |
| 2026-05-04 18:59 | 37.47256 | 126.44356 | 28 ft | 18 kts | 255° |
| 2026-05-04 19:00 | 37.47186 | 126.44227 | 28 ft | 18 kts | 223° |
| 2026-05-04 19:00 | 37.47091 | 126.44104 | 28 ft | 21 kts | 227° |
| 2026-05-04 19:00 | 37.46996 | 126.43998 | 28 ft | 15 kts | 218° |
| 2026-05-04 19:00 | 37.46953 | 126.43957 | 28 ft | 7 kts | 217° |
| 2026-05-04 19:01 | 37.46930 | 126.43935 | 28 ft | 2 kts | 218° |
| 2026-05-04 19:01 | 37.46917 | 126.43922 | 28 ft | 2 kts | 219° |
| 2026-05-04 19:01 | 37.46910 | 126.43915 | 28 ft | 0 kts | 219° |
| 2026-05-04 19:01 | 37.46908 | 126.43912 | 28 ft | 0 kts | 219° |